Time;durP1;ratioP1;P1;durP2;ratioP2;P2;SDS_P1;SDS_P2;PMS_P1;PMS_P2;Temp;Humidity;BMP_temperature;BMP_pressure;BME280_temperature;BME280_humidity;BME280_pressure;Samples;Min_cycle;Max_cycle;Signal;HPM_P1;HPM_P2
2023/06/02 00:01:36;;;;;;;12.68;5.18;;;;;;;-148.23;100.00;56998.88;5055319;28;20049;-60
2023/06/02 00:04:03;;;;;;;7.68;4.82;;;;;;;-148.23;100.00;56998.88;5055194;28;20433;-60
2023/06/02 00:06:34;;;;;;;6.68;4.80;;;;;;;-148.23;100.00;56998.88;5055229;28;20045;-59
2023/06/02 00:09:03;;;;;;;8.35;4.68;;;;;;;-148.23;100.00;56998.88;5055128;28;20085;-60
2023/06/02 00:11:34;;;;;;;6.03;4.38;;;;;;;-148.23;100.00;56998.88;5054908;28;20103;-61
2023/06/02 00:14:04;;;;;;;8.05;4.78;;;;;;;-148.23;100.00;56998.88;5055134;28;20049;-60
2023/06/02 00:16:34;;;;;;;11.50;4.93;;;;;;;-148.23;100.00;56998.88;5054992;28;20411;-60
2023/06/02 00:19:01;;;;;;;5.00;4.43;;;;;;;-148.23;100.00;56998.88;5054888;28;20059;-60
2023/06/02 00:21:28;;;;;;;7.93;4.43;;;;;;;-148.23;100.00;56998.88;5054891;28;20049;-60
2023/06/02 00:23:55;;;;;;;7.47;5.00;;;;;;;-148.23;100.00;56998.88;5054892;28;20131;-60
2023/06/02 00:26:22;;;;;;;9.23;4.55;;;;;;;-148.23;100.00;56998.88;5055195;28;20131;-60
2023/06/02 00:28:51;;;;;;;8.27;4.20;;;;;;;-148.23;100.00;56998.88;5054899;28;20049;-59
2023/06/02 00:31:18;;;;;;;7.57;5.32;;;;;;;-148.23;100.00;56998.88;5054763;28;20045;-61
2023/06/02 00:33:45;;;;;;;7.95;5.00;;;;;;;-148.23;100.00;56998.88;5054751;28;20146;-60
2023/06/02 00:36:12;;;;;;;9.98;4.65;;;;;;;-148.23;100.00;56998.88;5054622;28;20080;-60
2023/06/02 00:38:41;;;;;;;12.73;4.32;;;;;;;-148.23;100.00;56998.88;5054575;28;20053;-60
2023/06/02 00:41:08;;;;;;;12.10;4.47;;;;;;;-148.23;100.00;56998.88;5054449;28;20414;-61
2023/06/02 00:43:35;;;;;;;7.93;5.03;;;;;;;-148.23;100.00;56998.88;5054507;28;20041;-60
2023/06/02 00:46:04;;;;;;;10.00;5.00;;;;;;;-148.23;100.00;56998.88;5054437;28;20041;-60
2023/06/02 00:48:31;;;;;;;7.70;5.13;;;;;;;-148.23;100.00;56998.88;5054546;28;20106;-59
2023/06/02 00:50:58;;;;;;;9.77;4.38;;;;;;;-148.23;100.00;56998.88;5054393;28;20049;-60
2023/06/02 00:53:25;;;;;;;7.50;4.47;;;;;;;-148.23;100.00;56998.88;5054432;28;20049;-60
2023/06/02 00:55:53;;;;;;;9.45;5.05;;;;;;;-148.23;100.00;56998.88;5054256;28;20550;-60
2023/06/02 00:58:21;;;;;;;14.65;5.28;;;;;;;-148.23;100.00;56998.88;5054225;28;20052;-60
2023/06/02 01:00:48;;;;;;;7.60;4.93;;;;;;;-148.23;100.00;56998.88;5054097;28;20384;-60
2023/06/02 01:03:17;;;;;;;10.48;5.20;;;;;;;-148.23;100.00;56998.88;5054078;28;20045;-60
2023/06/02 01:05:45;;;;;;;8.93;5.05;;;;;;;-148.23;100.00;56998.88;5054105;28;20056;-60
2023/06/02 01:08:14;;;;;;;9.38;5.25;;;;;;;-148.23;100.00;56998.88;5054140;28;20099;-60
2023/06/02 01:10:42;;;;;;;8.65;5.25;;;;;;;-148.23;100.00;56998.88;5054014;28;20498;-60
2023/06/02 01:13:09;;;;;;;8.80;4.55;;;;;;;-148.23;100.00;56998.88;5054001;28;20060;-60
2023/06/02 01:15:36;;;;;;;12.60;5.22;;;;;;;-148.23;100.00;56998.88;5053941;28;20483;-60
2023/06/02 01:18:09;;;;;;;15.18;4.90;;;;;;;-148.23;100.00;56998.88;5053990;28;20049;-59
2023/06/02 01:20:44;;;;;;;8.48;4.60;;;;;;;-148.23;100.00;56998.88;5054038;28;20045;-60
2023/06/02 01:23:17;;;;;;;4.93;4.18;;;;;;;-148.23;100.00;56998.88;5053802;28;20427;-60
2023/06/02 01:25:46;;;;;;;8.07;5.07;;;;;;;-148.23;100.00;56998.88;5053892;28;20216;-60
2023/06/02 01:28:14;;;;;;;13.23;4.80;;;;;;;-148.23;100.00;56998.88;5053722;28;20049;-59
2023/06/02 01:30:41;;;;;;;10.93;5.30;;;;;;;-148.23;100.00;56998.88;5053596;28;20552;-60
2023/06/02 01:33:17;;;;;;;7.38;4.82;;;;;;;-148.23;100.00;56998.88;5053645;28;20068;-59
2023/06/02 01:35:47;;;;;;;9.73;4.78;;;;;;;-148.23;100.00;56998.88;5053665;28;20048;-60
2023/06/02 01:38:15;;;;;;;10.77;4.65;;;;;;;-148.23;100.00;56998.88;5053506;28;20493;-60
2023/06/02 01:40:43;;;;;;;6.32;4.32;;;;;;;-148.23;100.00;56998.88;5053440;28;20132;-59
2023/06/02 01:43:12;;;;;;;7.28;4.88;;;;;;;-148.23;100.00;56998.88;5053456;28;20056;-59
2023/06/02 01:45:41;;;;;;;12.10;4.97;;;;;;;-148.23;100.00;56998.88;5053302;28;20127;-60
2023/06/02 01:48:10;;;;;;;8.80;5.55;;;;;;;-148.23;100.00;56998.88;5053445;28;20098;-59
2023/06/02 01:50:38;;;;;;;7.20;4.43;;;;;;;-148.23;100.00;56998.88;5053312;28;20045;-60
2023/06/02 01:53:05;;;;;;;12.70;4.70;;;;;;;-148.23;100.00;56998.88;5053453;28;20045;-59
2023/06/02 01:55:33;;;;;;;13.57;4.25;;;;;;;-148.23;100.00;56998.88;5053414;28;20049;-59
2023/06/02 01:58:00;;;;;;;12.88;4.68;;;;;;;-148.23;100.00;56998.88;5053069;28;20056;-60
2023/06/02 02:00:28;;;;;;;9.73;5.55;;;;;;;-148.23;100.00;56998.88;5053152;28;20088;-60
2023/06/02 02:02:56;;;;;;;7.30;4.72;;;;;;;-148.23;100.00;56998.88;5053130;28;20049;-60
2023/06/02 02:05:23;;;;;;;8.05;4.55;;;;;;;-148.23;100.00;56998.88;5053079;28;20483;-60
2023/06/02 02:07:50;;;;;;;7.88;4.68;;;;;;;-148.23;100.00;56998.88;5053178;28;20063;-60
2023/06/02 02:10:18;;;;;;;10.30;5.65;;;;;;;-148.23;100.00;56998.88;5053010;28;20080;-60
2023/06/02 02:12:45;;;;;;;8.05;4.82;;;;;;;-148.23;100.00;56998.88;5052701;28;20055;-60
2023/06/02 02:15:12;;;;;;;13.75;4.78;;;;;;;-148.23;100.00;56998.88;5052955;28;20509;-60
2023/06/02 02:17:45;;;;;;;9.90;4.65;;;;;;;-148.23;100.00;56998.88;5052950;28;20085;-61
2023/06/02 02:20:17;;;;;;;7.20;4.57;;;;;;;-148.23;100.00;56998.88;5052633;28;20499;-60
2023/06/02 02:22:44;;;;;;;9.50;4.85;;;;;;;-148.23;100.00;56998.88;5052893;28;20487;-60
2023/06/02 02:25:12;;;;;;;6.20;5.20;;;;;;;-148.23;100.00;56998.88;5052921;28;20520;-60
2023/06/02 02:27:39;;;;;;;6.25;5.05;;;;;;;-148.23;100.00;56998.88;5052969;28;20049;-60
2023/06/02 02:30:07;;;;;;;7.32;4.60;;;;;;;-148.23;100.00;56998.88;5052954;28;20076;-61
2023/06/02 02:32:36;;;;;;;5.32;4.68;;;;;;;-148.23;100.00;56998.88;5052956;28;20102;-60
2023/06/02 02:35:06;;;;;;;7.47;5.10;;;;;;;-148.23;100.00;56998.88;5052769;28;20051;-59
2023/06/02 02:37:33;;;;;;;6.53;4.70;;;;;;;-148.23;100.00;56998.88;5052686;28;20136;-60
2023/06/02 02:40:00;;;;;;;9.90;4.75;;;;;;;-148.23;100.00;56998.88;5052799;28;20553;-59
2023/06/02 02:42:27;;;;;;;5.70;4.43;;;;;;;-148.23;100.00;56998.88;5052761;28;20045;-60
2023/06/02 02:44:54;;;;;;;10.60;5.43;;;;;;;-148.23;100.00;56998.88;5052661;28;20077;-59
2023/06/02 02:47:21;;;;;;;8.77;4.60;;;;;;;-148.23;100.00;56998.88;5052712;28;20049;-60
2023/06/02 02:49:48;;;;;;;5.82;4.80;;;;;;;-148.23;100.00;56998.88;5052665;28;20099;-59
2023/06/02 02:52:17;;;;;;;6.47;4.60;;;;;;;-148.23;100.00;56998.88;5052752;28;20127;-59
2023/06/02 02:54:44;;;;;;;12.80;5.47;;;;;;;-148.23;100.00;56998.88;5052646;28;20053;-60
2023/06/02 02:57:11;;;;;;;9.98;5.47;;;;;;;-148.23;100.00;56998.88;5052723;28;20049;-60
2023/06/02 02:59:38;;;;;;;8.38;5.22;;;;;;;-148.23;100.00;56998.88;5052577;28;20502;-59
2023/06/02 03:02:08;;;;;;;7.95;4.80;;;;;;;-148.23;100.00;56998.88;5052568;28;20067;-60
2023/06/02 03:04:35;;;;;;;11.75;5.18;;;;;;;-148.23;100.00;56998.88;5052555;28;20053;-60
2023/06/02 03:07:02;;;;;;;6.60;5.10;;;;;;;-148.23;100.00;56998.88;5052550;28;20471;-60
2023/06/02 03:09:31;;;;;;;6.35;4.68;;;;;;;-148.23;100.00;56998.88;5052458;28;20124;-60
2023/06/02 03:11:58;;;;;;;6.80;4.90;;;;;;;-148.23;100.00;56998.88;5052209;28;20102;-60
2023/06/02 03:14:28;;;;;;;10.60;4.78;;;;;;;-148.23;100.00;56998.88;5052345;28;20075;-59
2023/06/02 03:16:56;;;;;;;8.05;5.00;;;;;;;-148.23;100.00;56998.88;5052478;28;20419;-60
2023/06/02 03:19:26;;;;;;;9.95;5.00;;;;;;;-148.23;100.00;56998.88;5052582;28;20049;-60
2023/06/02 03:21:56;;;;;;;5.60;4.78;;;;;;;-148.23;100.00;56998.88;5052376;28;20089;-60
2023/06/02 03:24:23;;;;;;;7.93;4.43;;;;;;;-148.23;100.00;56998.88;5052310;28;20053;-59
2023/06/02 03:26:55;;;;;;;13.70;5.20;;;;;;;-148.23;100.00;56998.88;5052275;28;20517;-60
2023/06/02 03:29:22;;;;;;;9.05;4.43;;;;;;;-148.23;100.00;56998.88;5052278;28;20052;-60
2023/06/02 03:31:52;;;;;;;10.38;4.30;;;;;;;-148.23;100.00;56998.88;5052250;28;20049;-60
2023/06/02 03:34:20;;;;;;;6.55;4.13;;;;;;;-148.23;100.00;56998.88;5055280;28;20053;-61
2023/06/02 03:36:49;;;;;;;18.00;4.70;;;;;;;-148.23;100.00;56998.88;5056040;28;20048;-61
2023/06/02 03:39:16;;;;;;;6.05;3.97;;;;;;;-148.23;100.00;56998.88;5055754;28;20450;-60
2023/06/02 03:41:44;;;;;;;6.32;4.65;;;;;;;-148.23;100.00;56998.88;5055765;28;20045;-60
2023/06/02 03:44:12;;;;;;;5.30;4.45;;;;;;;-148.23;100.00;56998.88;5055647;28;20045;-60
2023/06/02 03:46:39;;;;;;;9.15;4.00;;;;;;;-148.23;100.00;56998.88;5055609;28;20076;-60
2023/06/02 03:49:06;;;;;;;6.18;4.28;;;;;;;-148.23;100.00;56998.88;5055669;28;20487;-61
2023/06/02 03:51:33;;;;;;;5.68;4.40;;;;;;;-148.23;100.00;56998.88;5055554;28;20045;-60
2023/06/02 03:54:01;;;;;;;4.65;3.88;;;;;;;-148.23;100.00;56998.88;5055406;28;20509;-60
2023/06/02 03:56:28;;;;;;;8.35;4.07;;;;;;;-148.23;100.00;56998.88;5055418;28;20438;-60
2023/06/02 03:58:55;;;;;;;6.63;4.03;;;;;;;-148.23;100.00;56998.88;5055306;28;20487;-61
2023/06/02 04:01:24;;;;;;;5.75;3.92;;;;;;;-148.23;100.00;56998.88;5055361;28;20048;-60
2023/06/02 04:03:51;;;;;;;4.80;4.25;;;;;;;-148.23;100.00;56998.88;5055209;28;20083;-61
2023/06/02 04:06:18;;;;;;;8.43;4.95;;;;;;;-148.23;100.00;56998.88;5055529;28;20049;-60
2023/06/02 04:08:46;;;;;;;5.20;3.60;;;;;;;-148.23;100.00;56998.88;5055392;28;20072;-60
2023/06/02 04:11:13;;;;;;;5.78;3.33;;;;;;;-148.23;100.00;56998.88;5054927;28;20053;-60
2023/06/02 04:13:40;;;;;;;5.78;3.67;;;;;;;-148.23;100.00;56998.88;5055107;28;20053;-60
2023/06/02 04:16:08;;;;;;;5.88;3.70;;;;;;;-148.23;100.00;56998.88;5054994;28;20095;-59
2023/06/02 04:18:39;;;;;;;6.50;3.97;;;;;;;-148.23;100.00;56998.88;5054989;28;20479;-60
2023/06/02 04:21:06;;;;;;;12.57;4.45;;;;;;;-148.23;100.00;56998.88;5054919;28;20045;-60
2023/06/02 04:23:34;;;;;;;10.48;3.70;;;;;;;-148.23;100.00;56998.88;5054859;28;20457;-60
2023/06/02 04:26:01;;;;;;;6.40;3.67;;;;;;;-148.23;100.00;56998.88;5054896;28;20056;-59
2023/06/02 04:28:28;;;;;;;6.72;3.80;;;;;;;-148.23;100.00;56998.88;5054757;28;20049;-59
2023/06/02 04:30:57;;;;;;;6.07;3.95;;;;;;;-148.23;100.00;56998.88;5054904;28;20041;-60
2023/06/02 04:33:24;;;;;;;6.50;3.90;;;;;;;-148.23;100.00;56998.88;5054773;28;20530;-60
2023/06/02 04:35:52;;;;;;;4.93;3.85;;;;;;;-148.23;100.00;56998.88;5054813;28;20122;-60
2023/06/02 04:38:20;;;;;;;6.32;3.88;;;;;;;-148.23;100.00;56998.88;5054556;28;20049;-60
2023/06/02 04:40:48;;;;;;;5.60;3.38;;;;;;;-148.23;100.00;56998.88;5054949;28;20049;-60
2023/06/02 04:43:15;;;;;;;5.55;3.75;;;;;;;-148.23;100.00;56998.88;5054318;28;20049;-60
2023/06/02 04:45:43;;;;;;;7.47;3.80;;;;;;;-148.23;100.00;56998.88;5054480;28;20051;-59
2023/06/02 04:48:11;;;;;;;4.15;3.25;;;;;;;-148.23;100.00;56998.88;5054432;28;20136;-59
2023/06/02 04:50:40;;;;;;;5.88;3.60;;;;;;;-148.23;100.00;56998.88;5054335;28;20053;-60
2023/06/02 04:53:08;;;;;;;5.63;3.67;;;;;;;-148.23;100.00;56998.88;5054396;28;20091;-59
2023/06/02 04:55:35;;;;;;;5.85;4.07;;;;;;;-148.23;100.00;56998.88;5054459;28;20144;-59
2023/06/02 04:58:03;;;;;;;6.32;4.32;;;;;;;-148.23;100.00;56998.88;5054197;28;20137;-59
2023/06/02 05:00:30;;;;;;;7.88;3.47;;;;;;;-148.23;100.00;56998.88;5054242;28;20388;-59
2023/06/02 05:02:57;;;;;;;6.60;4.15;;;;;;;-148.23;100.00;56998.88;5054181;28;20052;-59
2023/06/02 05:05:24;;;;;;;8.88;4.43;;;;;;;-148.23;100.00;56998.88;5054215;28;20072;-59
2023/06/02 05:07:54;;;;;;;9.02;4.00;;;;;;;-148.23;100.00;56998.88;5054259;28;20049;-59
2023/06/02 05:10:22;;;;;;;5.13;3.75;;;;;;;-148.23;100.00;56998.88;5053955;28;20049;-59
2023/06/02 05:12:52;;;;;;;4.20;3.80;;;;;;;-148.23;100.00;56998.88;5053844;28;20048;-59
2023/06/02 05:15:19;;;;;;;6.32;3.70;;;;;;;-148.23;100.00;56998.88;5054151;28;20564;-59
2023/06/02 05:17:46;;;;;;;8.10;4.57;;;;;;;-148.23;100.00;56998.88;5053814;28;20045;-58
2023/06/02 05:20:13;;;;;;;8.75;4.53;;;;;;;-148.23;100.00;56998.88;5053696;28;20063;-59
2023/06/02 05:22:40;;;;;;;6.82;4.53;;;;;;;-148.23;100.00;56998.88;5053740;28;20076;-60
2023/06/02 05:25:08;;;;;;;5.63;4.50;;;;;;;-148.23;100.00;56998.88;5053730;28;20454;-59
2023/06/02 05:27:37;;;;;;;6.53;4.68;;;;;;;-148.23;100.00;56998.88;5053801;28;20048;-59
2023/06/02 05:30:06;;;;;;;7.40;4.03;;;;;;;-148.23;100.00;56998.88;5053607;28;20051;-60
2023/06/02 05:32:33;;;;;;;7.47;4.68;;;;;;;-148.23;100.00;56998.88;5053653;28;20049;-59
2023/06/02 05:35:01;;;;;;;9.68;3.83;;;;;;;-148.23;100.00;56998.88;5053591;28;20052;-59
2023/06/02 05:37:28;;;;;;;7.47;3.90;;;;;;;-148.23;100.00;56998.88;5053578;28;20088;-58
2023/06/02 05:39:55;;;;;;;9.27;4.32;;;;;;;-148.23;100.00;56998.88;5053502;28;20053;-59
2023/06/02 05:42:22;;;;;;;8.95;4.38;;;;;;;-148.23;100.00;56998.88;5053348;28;20136;-60
2023/06/02 05:44:50;;;;;;;7.20;4.28;;;;;;;-148.23;100.00;56998.88;5053720;28;20052;-59
2023/06/02 05:47:17;;;;;;;8.13;3.92;;;;;;;-148.23;100.00;56998.88;5053362;28;20053;-59
2023/06/02 05:49:44;;;;;;;5.88;4.20;;;;;;;-148.23;100.00;56998.88;5053633;28;20075;-59
2023/06/02 05:52:11;;;;;;;10.30;4.63;;;;;;;-148.23;100.00;56998.88;5053333;28;20080;-60
2023/06/02 05:54:39;;;;;;;16.00;4.93;;;;;;;-148.23;100.00;56998.88;5053300;28;20053;-58
2023/06/02 05:57:07;;;;;;;10.32;4.28;;;;;;;-148.23;100.00;56998.88;5052927;28;20182;-60
2023/06/02 05:59:34;;;;;;;4.03;3.63;;;;;;;-148.23;100.00;56998.88;5053195;28;20061;-59
2023/06/02 06:02:02;;;;;;;9.00;4.85;;;;;;;-148.23;100.00;56998.88;5053311;28;20087;-60
2023/06/02 06:04:29;;;;;;;8.73;4.45;;;;;;;-148.23;100.00;56998.88;5053261;28;20500;-59
2023/06/02 06:06:57;;;;;;;11.10;4.80;;;;;;;-148.23;100.00;56998.88;5053353;28;20056;-59
2023/06/02 06:09:24;;;;;;;8.80;4.53;;;;;;;-148.23;100.00;56998.88;5053088;28;20049;-59
2023/06/02 06:11:51;;;;;;;9.73;5.03;;;;;;;-148.23;100.00;56998.88;5052788;28;20502;-59
2023/06/02 06:14:18;;;;;;;7.40;4.47;;;;;;;-148.23;100.00;56998.88;5052969;28;20052;-59
2023/06/02 06:16:45;;;;;;;8.00;4.88;;;;;;;-148.23;100.00;56998.88;5053224;28;20049;-59
2023/06/02 06:19:14;;;;;;;7.28;4.60;;;;;;;-148.23;100.00;56998.88;5052983;28;20045;-60
2023/06/02 06:21:41;;;;;;;8.55;5.05;;;;;;;-148.23;100.00;56998.88;5052944;28;20095;-59
2023/06/02 06:24:08;;;;;;;10.32;4.60;;;;;;;-148.23;100.00;56998.88;5052995;28;20154;-60
2023/06/02 06:26:35;;;;;;;5.53;4.30;;;;;;;-148.23;100.00;56998.88;5052782;28;20142;-59
2023/06/02 06:29:03;;;;;;;5.40;3.78;;;;;;;-148.23;100.00;56998.88;5053348;28;20045;-60
2023/06/02 06:31:32;;;;;;;5.63;3.33;;;;;;;-148.23;100.00;56998.88;5053099;28;20084;-60
2023/06/02 06:33:59;;;;;;;6.18;3.20;;;;;;;-148.23;100.00;56998.88;5052811;28;20045;-59
2023/06/02 06:36:27;;;;;;;7.32;3.80;;;;;;;-148.23;100.00;56998.88;5052848;28;20445;-59
2023/06/02 06:38:55;;;;;;;5.32;4.40;;;;;;;-148.23;100.00;56998.88;5052922;28;20114;-59
2023/06/02 06:41:22;;;;;;;4.10;3.70;;;;;;;-148.23;100.00;56998.88;5052937;28;20053;-59
2023/06/02 06:43:50;;;;;;;7.20;4.10;;;;;;;-148.23;100.00;56998.88;5053034;28;20049;-59
2023/06/02 06:46:17;;;;;;;6.45;3.95;;;;;;;-148.23;100.00;56998.88;5052787;28;20487;-59
2023/06/02 06:48:44;;;;;;;6.28;3.42;;;;;;;-148.23;100.00;56998.88;5052717;28;20049;-59
2023/06/02 06:51:11;;;;;;;7.65;3.40;;;;;;;-148.23;100.00;56998.88;5052895;28;20053;-59
2023/06/02 06:53:40;;;;;;;7.90;3.97;;;;;;;-148.23;100.00;56998.88;5052566;28;20481;-59
2023/06/02 06:56:07;;;;;;;5.40;3.33;;;;;;;-148.23;100.00;56998.88;5052745;28;20049;-59
2023/06/02 06:58:34;;;;;;;10.00;3.70;;;;;;;-148.23;100.00;56998.88;5052731;28;20458;-59
2023/06/02 07:01:02;;;;;;;5.20;3.60;;;;;;;-148.23;100.00;56998.88;5052537;28;20403;-60
2023/06/02 07:03:29;;;;;;;5.28;3.70;;;;;;;-148.23;100.00;56998.88;5052489;28;20052;-60
2023/06/02 07:05:56;;;;;;;4.95;3.38;;;;;;;-148.23;100.00;56998.88;5052519;28;20103;-59
2023/06/02 07:08:23;;;;;;;7.93;3.50;;;;;;;-148.23;100.00;56998.88;5055896;28;20049;-60
2023/06/02 07:10:52;;;;;;;4.47;3.63;;;;;;;-148.23;100.00;56998.88;5056646;28;20059;-60
2023/06/02 07:13:19;;;;;;;10.13;3.80;;;;;;;-148.23;100.00;56998.88;5056148;28;20107;-60
2023/06/02 07:15:46;;;;;;;5.25;4.20;;;;;;;-148.23;100.00;56998.88;5056279;28;20064;-59
2023/06/02 07:18:13;;;;;;;5.93;3.70;;;;;;;-148.23;100.00;56998.88;5056278;28;20053;-59
2023/06/02 07:20:40;;;;;;;5.55;3.72;;;;;;;-148.23;100.00;56998.88;5056231;28;20053;-59
2023/06/02 07:23:08;;;;;;;5.70;3.22;;;;;;;-148.23;100.00;56998.88;5056172;28;20072;-60
2023/06/02 07:25:36;;;;;;;4.10;3.20;;;;;;;-148.23;100.00;56998.88;5056322;28;20135;-60
2023/06/02 07:28:05;;;;;;;8.48;3.92;;;;;;;-148.23;100.00;56998.88;5055958;28;20103;-60
2023/06/02 07:30:32;;;;;;;5.53;3.67;;;;;;;-148.23;100.00;56998.88;5056040;28;20041;-59
2023/06/02 07:32:59;;;;;;;4.88;3.30;;;;;;;-148.23;100.00;56998.88;5055874;28;20129;-60
2023/06/02 07:35:26;;;;;;;4.72;3.55;;;;;;;-148.23;100.00;56998.88;5056151;28;20084;-59
2023/06/02 07:37:54;;;;;;;5.35;3.58;;;;;;;-148.23;100.00;56998.88;5055896;28;20502;-60
2023/06/02 07:40:22;;;;;;;10.43;3.58;;;;;;;-148.23;100.00;56998.88;5055723;28;20140;-60
2023/06/02 07:42:49;;;;;;;8.93;3.70;;;;;;;-148.23;100.00;56998.88;5055778;28;20071;-60
2023/06/02 07:45:18;;;;;;;5.07;3.20;;;;;;;-148.23;100.00;56998.88;5054732;28;20124;-60
2023/06/02 07:47:45;;;;;;;8.70;3.58;;;;;;;-148.23;100.00;56998.88;5055634;28;20045;-60
2023/06/02 07:50:12;;;;;;;5.20;3.22;;;;;;;-148.23;100.00;56998.88;5055773;28;20436;-60
2023/06/02 07:52:39;;;;;;;5.25;3.47;;;;;;;-148.23;100.00;56998.88;5055584;28;20055;-60
2023/06/02 07:55:07;;;;;;;6.13;3.40;;;;;;;-148.23;100.00;56998.88;5055442;28;20049;-59
2023/06/02 07:57:34;;;;;;;7.32;3.88;;;;;;;-148.23;100.00;56998.88;5055507;28;20481;-60
2023/06/02 08:00:10;;;;;;;4.88;3.45;;;;;;;-148.23;100.00;56998.88;5055341;28;20053;-60
2023/06/02 08:02:40;;;;;;;8.15;3.60;;;;;;;-148.23;100.00;56998.88;5055352;28;20045;-60
2023/06/02 08:05:07;;;;;;;5.03;3.47;;;;;;;-148.23;100.00;56998.88;5055379;28;20048;-61
2023/06/02 08:07:35;;;;;;;4.47;3.80;;;;;;;-148.23;100.00;56998.88;5055423;28;20090;-60
2023/06/02 08:10:02;;;;;;;3.85;3.30;;;;;;;-148.23;100.00;56998.88;5055243;28;20084;-60
2023/06/02 08:12:29;;;;;;;4.50;3.75;;;;;;;-148.23;100.00;56998.88;5054928;28;20045;-60
2023/06/02 08:14:56;;;;;;;4.38;3.45;;;;;;;-148.23;100.00;56998.88;5055100;28;20041;-60
2023/06/02 08:17:29;;;;;;;9.30;3.85;;;;;;;-148.23;100.00;56998.88;5055050;28;20053;-61
2023/06/02 08:19:57;;;;;;;5.07;4.00;;;;;;;-148.23;100.00;56998.88;5054443;28;20044;-61
2023/06/02 08:22:25;;;;;;;6.80;3.80;;;;;;;-148.23;100.00;56998.88;5055302;28;20115;-60
2023/06/02 08:24:53;;;;;;;7.93;3.80;;;;;;;-148.23;100.00;56998.88;5054944;28;20045;-60
2023/06/02 08:27:21;;;;;;;6.97;3.88;;;;;;;-148.23;100.00;56998.88;5054780;28;20103;-61
2023/06/02 08:29:49;;;;;;;9.73;4.05;;;;;;;-148.23;100.00;56998.88;5054761;28;20380;-60
2023/06/02 08:32:18;;;;;;;5.00;3.85;;;;;;;-148.23;100.00;56998.88;5054917;28;20045;-60
2023/06/02 08:34:47;;;;;;;6.07;3.42;;;;;;;-148.23;100.00;56998.88;5054799;28;20049;-60
2023/06/02 08:37:16;;;;;;;7.75;3.55;;;;;;;-148.23;100.00;56998.88;5055010;28;20130;-60
2023/06/02 08:39:44;;;;;;;8.10;3.83;;;;;;;-148.23;100.00;56998.88;5054676;28;20052;-61
2023/06/02 08:42:12;;;;;;;4.43;3.63;;;;;;;-148.23;100.00;56998.88;5054577;28;20049;-61
2023/06/02 08:44:40;;;;;;;8.05;3.65;;;;;;;-148.23;100.00;56998.88;5054463;28;20111;-61
2023/06/02 08:47:10;;;;;;;8.23;4.03;;;;;;;-148.23;100.00;56998.88;5054528;28;20041;-60
2023/06/02 08:49:37;;;;;;;5.97;3.83;;;;;;;-148.23;100.00;56998.88;5054469;28;20059;-60
2023/06/02 08:52:10;;;;;;;6.15;3.75;;;;;;;-148.23;100.00;56998.88;5054397;28;20136;-60
2023/06/02 08:54:39;;;;;;;6.30;3.60;;;;;;;-148.23;100.00;56998.88;5054422;28;20120;-60
2023/06/02 08:57:09;;;;;;;7.53;3.58;;;;;;;-148.23;100.00;56998.88;5054308;28;20384;-60
2023/06/02 08:59:36;;;;;;;9.35;4.13;;;;;;;-148.23;100.00;56998.88;5054158;28;20547;-60
2023/06/02 09:02:04;;;;;;;4.93;3.70;;;;;;;-148.23;100.00;56998.88;5054363;28;20098;-60
2023/06/02 09:04:31;;;;;;;7.03;3.95;;;;;;;-148.23;100.00;56998.88;5054268;28;20084;-60
2023/06/02 09:07:19;;;;;;;10.10;3.55;;;;;;;-148.23;100.00;56998.88;5054340;28;20052;-61
2023/06/02 09:09:49;;;;;;;6.85;3.63;;;;;;;-148.23;100.00;56998.88;5054043;28;20045;-60
2023/06/02 09:12:17;;;;;;;4.30;3.65;;;;;;;-148.23;100.00;56998.88;5054025;28;20052;-60
2023/06/02 09:14:45;;;;;;;5.38;3.38;;;;;;;-148.23;100.00;56998.88;5053964;28;20103;-60
2023/06/02 09:17:26;;;;;;;7.00;3.92;;;;;;;-148.23;100.00;56998.88;5053905;28;20045;-60
2023/06/02 09:19:54;;;;;;;6.85;4.32;;;;;;;-148.23;100.00;56998.88;5053948;28;20049;-60
2023/06/02 09:22:22;;;;;;;4.93;3.22;;;;;;;-148.23;100.00;56998.88;5053930;28;20048;-60
2023/06/02 09:24:52;;;;;;;5.97;3.78;;;;;;;-148.23;100.00;56998.88;5053903;28;20197;-60
2023/06/02 09:27:19;;;;;;;7.03;3.25;;;;;;;-148.23;100.00;56998.88;5053881;28;20429;-61
2023/06/02 09:29:47;;;;;;;5.15;3.75;;;;;;;-148.23;100.00;56998.88;5053327;28;20049;-60
2023/06/02 09:32:16;;;;;;;8.15;3.65;;;;;;;-148.23;100.00;56998.88;5053174;28;20049;-60
2023/06/02 09:34:45;;;;;;;5.38;3.55;;;;;;;-148.23;100.00;56998.88;5053753;28;20053;-60
2023/06/02 09:37:14;;;;;;;8.20;3.53;;;;;;;-148.23;100.00;56998.88;5053563;28;20041;-60
2023/06/02 09:39:43;;;;;;;8.07;3.65;;;;;;;-148.23;100.00;56998.88;5053502;28;20040;-60
2023/06/02 09:42:13;;;;;;;7.85;4.03;;;;;;;-148.23;100.00;56998.88;5053514;28;20045;-61
2023/06/02 09:44:41;;;;;;;8.38;3.50;;;;;;;-148.23;100.00;56998.88;5053440;28;20080;-60
2023/06/02 09:47:22;;;;;;;7.97;4.18;;;;;;;-148.23;100.00;56998.88;5053385;28;20124;-60
2023/06/02 09:49:49;;;;;;;;;;;;;;;-148.23;100.00;56998.88;5053724;28;20099;-60
2023/06/02 09:52:17;;;;;;;5.88;3.30;;;;;;;-148.23;100.00;56998.88;5053337;28;20370;-60
2023/06/02 09:54:45;;;;;;;7.28;4.00;;;;;;;-148.23;100.00;56998.88;5053351;28;20055;-60
2023/06/02 09:57:15;;;;;;;6.15;3.60;;;;;;;-148.23;100.00;56998.88;5053300;28;20052;-60
2023/06/02 09:59:42;;;;;;;8.60;3.83;;;;;;;-148.23;100.00;56998.88;5053115;28;20052;-60
2023/06/02 10:02:10;;;;;;;8.55;3.60;;;;;;;-148.23;100.00;56998.88;5053230;28;20090;-60
2023/06/02 10:04:38;;;;;;;7.38;3.83;;;;;;;-148.23;100.00;56998.88;5053380;28;20455;-60
2023/06/02 10:07:17;;;;;;;5.18;3.78;;;;;;;-148.23;100.00;56998.88;5053372;28;20130;-60
2023/06/02 10:09:57;;;;;;;3.92;3.35;;;;;;;-148.23;100.00;56998.88;5053038;28;20055;-60
2023/06/02 10:12:45;;;;;;;6.55;3.72;;;;;;;-148.23;100.00;56998.88;5053039;28;20045;-60
2023/06/02 10:15:36;;;;;;;6.97;3.13;;;;;;;-148.23;100.00;56998.88;5053013;28;20041;-60
2023/06/02 10:18:20;;;;;;;7.05;4.13;;;;;;;-148.23;100.00;56998.88;5052979;28;20049;-60
2023/06/02 10:21:01;;;;;;;7.75;3.72;;;;;;;-148.23;100.00;56998.88;5052870;28;20049;-60
2023/06/02 10:23:45;;;;;;;5.28;3.75;;;;;;;-148.23;100.00;56998.88;5053006;28;20088;-60
2023/06/02 10:26:32;;;;;;;8.68;4.47;;;;;;;-148.23;100.00;56998.88;5052895;28;20509;-60
2023/06/02 10:29:03;;;;;;;5.25;4.00;;;;;;;-148.23;100.00;56998.88;5053146;28;20380;-60
2023/06/02 10:31:32;;;;;;;6.18;3.53;;;;;;;-148.23;100.00;56998.88;5053161;28;20048;-60
2023/06/02 10:34:00;;;;;;;6.40;3.70;;;;;;;-148.23;100.00;56998.88;5052877;28;20055;-61
2023/06/02 10:36:28;;;;;;;7.97;3.83;;;;;;;-148.23;100.00;56998.88;5052901;28;20049;-60
2023/06/02 10:38:56;;;;;;;6.35;3.90;;;;;;;-148.23;100.00;56998.88;5052887;28;20480;-60
2023/06/02 10:41:56;;;;;;;5.97;3.92;;;;;;;-148.23;100.00;56998.88;5052857;28;20138;-60
2023/06/02 10:44:25;;;;;;;5.03;3.85;;;;;;;-148.23;100.00;56998.88;5056863;28;20474;-60
2023/06/02 10:47:26;;;;;;;5.43;3.95;;;;;;;-148.23;100.00;56998.88;5056755;28;20080;-60
2023/06/02 10:49:55;;;;;;;7.57;3.67;;;;;;;-148.23;100.00;56998.88;5056538;28;20545;-59
2023/06/02 10:52:22;;;;;;;6.45;3.55;;;;;;;-148.23;100.00;56998.88;5056738;28;20057;-60
2023/06/02 10:55:26;;;;;;;7.15;4.15;;;;;;;-148.23;100.00;56998.88;5056631;28;20107;-60
2023/06/02 10:57:53;;;;;;;8.98;4.05;;;;;;;-148.23;100.00;56998.88;5056650;28;20049;-60
2023/06/02 11:00:45;;;;;;;7.97;3.40;;;;;;;-148.23;100.00;56998.88;5056483;28;20398;-60
2023/06/02 11:03:35;;;;;;;7.75;4.05;;;;;;;-148.23;100.00;56998.88;5056465;28;20487;-60
2023/06/02 11:06:22;;;;;;;7.88;4.20;;;;;;;-148.23;100.00;56998.88;5056552;28;20136;-60
2023/06/02 11:08:57;;;;;;;5.38;3.65;;;;;;;-148.23;100.00;56998.88;5056403;28;20453;-61
2023/06/02 11:12:00;;;;;;;7.07;3.92;;;;;;;-148.23;100.00;56998.88;5056374;28;20461;-60
2023/06/02 11:14:27;;;;;;;10.65;3.78;;;;;;;-148.23;100.00;56998.88;5056303;28;20451;-60
2023/06/02 11:17:33;;;;;;;10.38;3.75;;;;;;;-148.23;100.00;56998.88;5056355;28;20091;-59
2023/06/02 11:20:01;;;;;;;6.60;3.30;;;;;;;-148.23;100.00;56998.88;5056196;28;20128;-60